sensor_id;sensor_type;location;lat;lon;timestamp;P1;durP1;ratioP1;P2;durP2;ratioP2
11839;SDS011;5979;50.800;4.904;2022-10-16T00:01:28;1.27;;;1.10;;
11839;SDS011;5979;50.800;4.904;2022-10-16T00:03:56;1.27;;;1.17;;
11839;SDS011;5979;50.800;4.904;2022-10-16T00:06:23;1.48;;;1.20;;
11839;SDS011;5979;50.800;4.904;2022-10-16T00:08:50;1.20;;;1.20;;
11839;SDS011;5979;50.800;4.904;2022-10-16T00:11:18;1.25;;;1.15;;
11839;SDS011;5979;50.800;4.904;2022-10-16T00:13:49;1.80;;;1.15;;
11839;SDS011;5979;50.800;4.904;2022-10-16T00:16:17;1.10;;;1.10;;
11839;SDS011;5979;50.800;4.904;2022-10-16T00:18:43;1.60;;;1.40;;
11839;SDS011;5979;50.800;4.904;2022-10-16T00:21:13;1.40;;;1.30;;
11839;SDS011;5979;50.800;4.904;2022-10-16T00:23:50;1.10;;;1.10;;
11839;SDS011;5979;50.800;4.904;2022-10-16T00:26:17;1.85;;;1.25;;
11839;SDS011;5979;50.800;4.904;2022-10-16T00:28:47;1.27;;;1.17;;
11839;SDS011;5979;50.800;4.904;2022-10-16T00:31:15;1.25;;;1.20;;
11839;SDS011;5979;50.800;4.904;2022-10-16T00:33:42;1.63;;;1.40;;
11839;SDS011;5979;50.800;4.904;2022-10-16T00:36:10;1.73;;;1.05;;
11839;SDS011;5979;50.800;4.904;2022-10-16T00:38:38;1.00;;;1.00;;
11839;SDS011;5979;50.800;4.904;2022-10-16T00:41:04;1.13;;;1.02;;
11839;SDS011;5979;50.800;4.904;2022-10-16T00:43:38;2.22;;;1.00;;
11839;SDS011;5979;50.800;4.904;2022-10-16T00:46:21;1.10;;;1.10;;
11839;SDS011;5979;50.800;4.904;2022-10-16T00:51:32;1.02;;;1.00;;
11839;SDS011;5979;50.800;4.904;2022-10-16T00:54:04;0.98;;;0.98;;
11839;SDS011;5979;50.800;4.904;2022-10-16T00:56:33;1.10;;;1.10;;
11839;SDS011;5979;50.800;4.904;2022-10-16T00:58:59;1.08;;;1.00;;
11839;SDS011;5979;50.800;4.904;2022-10-16T01:01:29;3.83;;;1.55;;
11839;SDS011;5979;50.800;4.904;2022-10-16T01:03:54;0.95;;;0.85;;
11839;SDS011;5979;50.800;4.904;2022-10-16T01:06:31;2.97;;;1.38;;
11839;SDS011;5979;50.800;4.904;2022-10-16T01:14:57;2.17;;;1.30;;
11839;SDS011;5979;50.800;4.904;2022-10-16T01:17:30;1.42;;;1.33;;
11839;SDS011;5979;50.800;4.904;2022-10-16T01:22:37;1.27;;;1.27;;
11839;SDS011;5979;50.800;4.904;2022-10-16T01:25:34;3.42;;;1.70;;
11839;SDS011;5979;50.800;4.904;2022-10-16T01:28:24;2.13;;;1.55;;
11839;SDS011;5979;50.800;4.904;2022-10-16T01:30:57;1.80;;;1.70;;
11839;SDS011;5979;50.800;4.904;2022-10-16T01:33:30;1.70;;;1.40;;
11839;SDS011;5979;50.800;4.904;2022-10-16T01:36:15;1.70;;;1.60;;
11839;SDS011;5979;50.800;4.904;2022-10-16T01:38:46;1.92;;;1.70;;
11839;SDS011;5979;50.800;4.904;2022-10-16T01:41:18;4.15;;;1.70;;
11839;SDS011;5979;50.800;4.904;2022-10-16T01:44:15;2.55;;;1.90;;
11839;SDS011;5979;50.800;4.904;2022-10-16T01:46:42;1.75;;;1.60;;
11839;SDS011;5979;50.800;4.904;2022-10-16T01:49:10;2.22;;;1.63;;
11839;SDS011;5979;50.800;4.904;2022-10-16T01:51:38;1.77;;;1.67;;
11839;SDS011;5979;50.800;4.904;2022-10-16T01:54:04;1.92;;;1.80;;
11839;SDS011;5979;50.800;4.904;2022-10-16T01:56:33;1.98;;;1.83;;
11839;SDS011;5979;50.800;4.904;2022-10-16T01:59:06;1.17;;;1.17;;
11839;SDS011;5979;50.800;4.904;2022-10-16T02:01:36;2.10;;;1.60;;
11839;SDS011;5979;50.800;4.904;2022-10-16T02:04:13;2.28;;;1.65;;
11839;SDS011;5979;50.800;4.904;2022-10-16T02:06:52;3.38;;;1.60;;
11839;SDS011;5979;50.800;4.904;2022-10-16T02:09:18;1.60;;;1.50;;
11839;SDS011;5979;50.800;4.904;2022-10-16T02:11:44;1.63;;;1.52;;
11839;SDS011;5979;50.800;4.904;2022-10-16T02:14:10;1.40;;;1.30;;
11839;SDS011;5979;50.800;4.904;2022-10-16T02:16:39;1.67;;;1.42;;
11839;SDS011;5979;50.800;4.904;2022-10-16T02:19:07;1.75;;;1.60;;
11839;SDS011;5979;50.800;4.904;2022-10-16T02:29:55;1.45;;;1.35;;
11839;SDS011;5979;50.800;4.904;2022-10-16T02:32:32;1.65;;;1.30;;
11839;SDS011;5979;50.800;4.904;2022-10-16T02:34:59;1.80;;;1.70;;
11839;SDS011;5979;50.800;4.904;2022-10-16T02:37:26;2.53;;;1.70;;
11839;SDS011;5979;50.800;4.904;2022-10-16T02:39:53;2.97;;;1.77;;
11839;SDS011;5979;50.800;4.904;2022-10-16T02:42:20;1.50;;;1.40;;
11839;SDS011;5979;50.800;4.904;2022-10-16T02:44:52;1.52;;;1.52;;
11839;SDS011;5979;50.800;4.904;2022-10-16T02:47:18;1.70;;;1.60;;
11839;SDS011;5979;50.800;4.904;2022-10-16T02:49:43;1.33;;;1.30;;
11839;SDS011;5979;50.800;4.904;2022-10-16T02:52:09;2.95;;;1.70;;
11839;SDS011;5979;50.800;4.904;2022-10-16T02:54:35;1.70;;;1.60;;
11839;SDS011;5979;50.800;4.904;2022-10-16T02:57:00;2.55;;;1.60;;
11839;SDS011;5979;50.800;4.904;2022-10-16T02:59:26;1.60;;;1.60;;
11839;SDS011;5979;50.800;4.904;2022-10-16T03:01:52;2.38;;;1.90;;
11839;SDS011;5979;50.800;4.904;2022-10-16T03:04:17;3.05;;;1.80;;
11839;SDS011;5979;50.800;4.904;2022-10-16T03:06:43;1.50;;;1.40;;
11839;SDS011;5979;50.800;4.904;2022-10-16T03:09:09;1.70;;;1.60;;
11839;SDS011;5979;50.800;4.904;2022-10-16T03:11:34;1.52;;;1.45;;
11839;SDS011;5979;50.800;4.904;2022-10-16T03:14:00;1.30;;;1.20;;
11839;SDS011;5979;50.800;4.904;2022-10-16T03:16:26;1.42;;;1.40;;
11839;SDS011;5979;50.800;4.904;2022-10-16T08:25:05;2.03;;;1.80;;
11839;SDS011;5979;50.800;4.904;2022-10-16T08:27:31;2.13;;;1.60;;
11839;SDS011;5979;50.800;4.904;2022-10-16T08:29:57;2.03;;;1.75;;
11839;SDS011;5979;50.800;4.904;2022-10-16T08:32:23;2.00;;;1.90;;
11839;SDS011;5979;50.800;4.904;2022-10-16T08:34:49;2.33;;;2.10;;
11839;SDS011;5979;50.800;4.904;2022-10-16T08:37:15;1.75;;;1.65;;
11839;SDS011;5979;50.800;4.904;2022-10-16T08:39:40;2.85;;;2.15;;
11839;SDS011;5979;50.800;4.904;2022-10-16T08:42:25;3.15;;;1.98;;
11839;SDS011;5979;50.800;4.904;2022-10-16T08:50:10;2.42;;;1.90;;
11839;SDS011;5979;50.800;4.904;2022-10-16T08:52:39;2.60;;;2.17;;
11839;SDS011;5979;50.800;4.904;2022-10-16T08:58:07;5.10;;;2.00;;
11839;SDS011;5979;50.800;4.904;2022-10-16T09:00:38;3.25;;;1.95;;
11839;SDS011;5979;50.800;4.904;2022-10-16T09:06:05;2.15;;;1.77;;
11839;SDS011;5979;50.800;4.904;2022-10-16T09:09:04;4.07;;;1.67;;
11839;SDS011;5979;50.800;4.904;2022-10-16T09:22:39;2.72;;;2.25;;
11839;SDS011;5979;50.800;4.904;2022-10-16T09:25:13;2.38;;;1.70;;
11839;SDS011;5979;50.800;4.904;2022-10-16T09:27:45;6.85;;;1.83;;
11839;SDS011;5979;50.800;4.904;2022-10-16T09:30:17;3.20;;;1.85;;
11839;SDS011;5979;50.800;4.904;2022-10-16T09:32:46;2.65;;;1.95;;
11839;SDS011;5979;50.800;4.904;2022-10-16T09:35:19;3.85;;;1.85;;
11839;SDS011;5979;50.800;4.904;2022-10-16T09:37:48;3.53;;;1.70;;
11839;SDS011;5979;50.800;4.904;2022-10-16T09:40:26;5.28;;;1.58;;
11839;SDS011;5979;50.800;4.904;2022-10-16T09:43:06;1.88;;;1.10;;
11839;SDS011;5979;50.800;4.904;2022-10-16T09:48:39;1.45;;;1.27;;
11839;SDS011;5979;50.800;4.904;2022-10-16T09:51:24;2.45;;;1.50;;
11839;SDS011;5979;50.800;4.904;2022-10-16T09:53:53;4.20;;;1.40;;
11839;SDS011;5979;50.800;4.904;2022-10-16T09:56:31;3.03;;;1.10;;
11839;SDS011;5979;50.800;4.904;2022-10-16T09:59:01;3.40;;;1.50;;
11839;SDS011;5979;50.800;4.904;2022-10-16T10:01:36;3.78;;;1.27;;
11839;SDS011;5979;50.800;4.904;2022-10-16T10:04:04;1.67;;;1.33;;
11839;SDS011;5979;50.800;4.904;2022-10-16T10:06:31;1.58;;;1.17;;
11839;SDS011;5979;50.800;4.904;2022-10-16T10:11:52;1.58;;;1.27;;
11839;SDS011;5979;50.800;4.904;2022-10-16T10:14:23;1.70;;;1.30;;
11839;SDS011;5979;50.800;4.904;2022-10-16T10:22:31;3.00;;;1.60;;
11839;SDS011;5979;50.800;4.904;2022-10-16T10:35:24;2.67;;;1.30;;
11839;SDS011;5979;50.800;4.904;2022-10-16T10:38:29;2.05;;;1.13;;
11839;SDS011;5979;50.800;4.904;2022-10-16T10:46:14;1.48;;;1.30;;
11839;SDS011;5979;50.800;4.904;2022-10-16T10:51:43;1.25;;;1.13;;
11839;SDS011;5979;50.800;4.904;2022-10-16T10:59:54;2.55;;;1.30;;
11839;SDS011;5979;50.800;4.904;2022-10-16T11:02:50;2.38;;;1.50;;
11839;SDS011;5979;50.800;4.904;2022-10-16T11:08:41;2.40;;;1.40;;
11839;SDS011;5979;50.800;4.904;2022-10-16T11:11:20;3.78;;;2.20;;
11839;SDS011;5979;50.800;4.904;2022-10-16T11:13:57;2.42;;;2.15;;
11839;SDS011;5979;50.800;4.904;2022-10-16T11:16:32;2.33;;;1.52;;
11839;SDS011;5979;50.800;4.904;2022-10-16T11:19:17;3.13;;;1.95;;
11839;SDS011;5979;50.800;4.904;2022-10-16T11:22:39;3.63;;;1.63;;
11839;SDS011;5979;50.800;4.904;2022-10-16T11:25:06;5.20;;;1.95;;
11839;SDS011;5979;50.800;4.904;2022-10-16T11:36:00;2.80;;;1.90;;
11839;SDS011;5979;50.800;4.904;2022-10-16T11:43:48;17.70;;;3.65;;
11839;SDS011;5979;50.800;4.904;2022-10-16T11:46:29;9.40;;;3.67;;
11839;SDS011;5979;50.800;4.904;2022-10-16T11:49:00;7.50;;;3.33;;
11839;SDS011;5979;50.800;4.904;2022-10-16T11:51:42;10.95;;;3.22;;
11839;SDS011;5979;50.800;4.904;2022-10-16T11:54:21;26.20;;;8.30;;
11839;SDS011;5979;50.800;4.904;2022-10-16T11:57:11;6.15;;;3.00;;
11839;SDS011;5979;50.800;4.904;2022-10-16T12:00:08;7.55;;;3.38;;
11839;SDS011;5979;50.800;4.904;2022-10-16T12:03:27;17.67;;;5.57;;
11839;SDS011;5979;50.800;4.904;2022-10-16T12:06:02;15.18;;;5.55;;
11839;SDS011;5979;50.800;4.904;2022-10-16T12:08:48;26.48;;;9.18;;
11839;SDS011;5979;50.800;4.904;2022-10-16T12:13:49;19.38;;;6.80;;
11839;SDS011;5979;50.800;4.904;2022-10-16T12:18:42;11.38;;;5.18;;
11839;SDS011;5979;50.800;4.904;2022-10-16T12:21:09;4.57;;;3.90;;
11839;SDS011;5979;50.800;4.904;2022-10-16T12:23:54;4.53;;;2.22;;
11839;SDS011;5979;50.800;4.904;2022-10-16T12:26:29;3.65;;;2.17;;
11839;SDS011;5979;50.800;4.904;2022-10-16T12:31:54;2.45;;;1.65;;
11839;SDS011;5979;50.800;4.904;2022-10-16T12:34:27;1.33;;;1.23;;
11839;SDS011;5979;50.800;4.904;2022-10-16T12:37:07;2.53;;;1.52;;
11839;SDS011;5979;50.800;4.904;2022-10-16T12:39:39;2.25;;;1.63;;
11839;SDS011;5979;50.800;4.904;2022-10-16T12:42:17;3.45;;;1.38;;
11839;SDS011;5979;50.800;4.904;2022-10-16T12:44:46;2.33;;;1.35;;
11839;SDS011;5979;50.800;4.904;2022-10-16T12:47:21;1.38;;;1.27;;
11839;SDS011;5979;50.800;4.904;2022-10-16T12:49:57;1.00;;;1.00;;
11839;SDS011;5979;50.800;4.904;2022-10-16T12:52:27;1.77;;;0.85;;
11839;SDS011;5979;50.800;4.904;2022-10-16T12:54:59;2.80;;;1.13;;
11839;SDS011;5979;50.800;4.904;2022-10-16T13:08:42;3.53;;;1.25;;
11839;SDS011;5979;50.800;4.904;2022-10-16T13:24:48;1.13;;;1.05;;
11839;SDS011;5979;50.800;4.904;2022-10-16T13:30:15;1.02;;;1.02;;
11839;SDS011;5979;50.800;4.904;2022-10-16T13:32:47;1.48;;;1.10;;
11839;SDS011;5979;50.800;4.904;2022-10-16T13:35:24;1.67;;;1.20;;
11839;SDS011;5979;50.800;4.904;2022-10-16T13:38:02;1.55;;;1.10;;
11839;SDS011;5979;50.800;4.904;2022-10-16T13:43:13;1.13;;;1.02;;
11839;SDS011;5979;50.800;4.904;2022-10-16T13:45:40;1.30;;;1.15;;
11839;SDS011;5979;50.800;4.904;2022-10-16T13:48:06;1.10;;;1.00;;
11839;SDS011;5979;50.800;4.904;2022-10-16T13:50:37;0.93;;;0.90;;
11839;SDS011;5979;50.800;4.904;2022-10-16T13:53:06;2.08;;;0.93;;
11839;SDS011;5979;50.800;4.904;2022-10-16T13:55:37;1.40;;;0.80;;
11839;SDS011;5979;50.800;4.904;2022-10-16T13:58:13;0.90;;;0.90;;
11839;SDS011;5979;50.800;4.904;2022-10-16T14:00:39;1.70;;;1.00;;
11839;SDS011;5979;50.800;4.904;2022-10-16T14:03:17;1.05;;;0.98;;
11839;SDS011;5979;50.800;4.904;2022-10-16T14:05:49;0.90;;;0.90;;
11839;SDS011;5979;50.800;4.904;2022-10-16T14:08:16;1.10;;;1.00;;
11839;SDS011;5979;50.800;4.904;2022-10-16T14:10:42;1.35;;;0.80;;
11839;SDS011;5979;50.800;4.904;2022-10-16T14:13:13;1.73;;;1.20;;
11839;SDS011;5979;50.800;4.904;2022-10-16T14:15:45;2.03;;;0.88;;
11839;SDS011;5979;50.800;4.904;2022-10-16T14:18:16;0.95;;;0.95;;
11839;SDS011;5979;50.800;4.904;2022-10-16T14:20:45;1.73;;;1.08;;
11839;SDS011;5979;50.800;4.904;2022-10-16T14:23:21;1.52;;;0.90;;
11839;SDS011;5979;50.800;4.904;2022-10-16T14:26:05;0.95;;;0.85;;
11839;SDS011;5979;50.800;4.904;2022-10-16T14:28:40;2.10;;;0.80;;
11839;SDS011;5979;50.800;4.904;2022-10-16T14:34:02;1.50;;;1.13;;
11839;SDS011;5979;50.800;4.904;2022-10-16T14:36:28;0.93;;;0.93;;
11839;SDS011;5979;50.800;4.904;2022-10-16T14:41:31;0.80;;;0.80;;
11839;SDS011;5979;50.800;4.904;2022-10-16T14:44:05;1.38;;;1.13;;
11839;SDS011;5979;50.800;4.904;2022-10-16T14:46:35;0.82;;;0.82;;
11839;SDS011;5979;50.800;4.904;2022-10-16T14:49:03;1.20;;;1.05;;
11839;SDS011;5979;50.800;4.904;2022-10-16T14:51:40;1.33;;;0.70;;
11839;SDS011;5979;50.800;4.904;2022-10-16T14:54:10;0.98;;;0.80;;
11839;SDS011;5979;50.800;4.904;2022-10-16T14:56:45;0.77;;;0.77;;
11839;SDS011;5979;50.800;4.904;2022-10-16T14:59:34;0.68;;;0.68;;
11839;SDS011;5979;50.800;4.904;2022-10-16T15:04:47;2.20;;;0.80;;
11839;SDS011;5979;50.800;4.904;2022-10-16T15:07:13;2.30;;;1.00;;
11839;SDS011;5979;50.800;4.904;2022-10-16T15:09:39;1.60;;;0.82;;
11839;SDS011;5979;50.800;4.904;2022-10-16T15:12:05;1.63;;;0.77;;
11839;SDS011;5979;50.800;4.904;2022-10-16T15:14:31;1.13;;;0.80;;
11839;SDS011;5979;50.800;4.904;2022-10-16T15:16:56;0.80;;;0.80;;
11839;SDS011;5979;50.800;4.904;2022-10-16T15:19:22;1.10;;;0.90;;
11839;SDS011;5979;50.800;4.904;2022-10-16T15:21:48;2.95;;;1.70;;
11839;SDS011;5979;50.800;4.904;2022-10-16T15:24:14;3.00;;;2.38;;
11839;SDS011;5979;50.800;4.904;2022-10-16T15:26:40;2.15;;;2.00;;
11839;SDS011;5979;50.800;4.904;2022-10-16T15:29:06;2.30;;;1.40;;
11839;SDS011;5979;50.800;4.904;2022-10-16T15:31:33;1.67;;;1.25;;
11839;SDS011;5979;50.800;4.904;2022-10-16T15:33:59;2.63;;;1.10;;
11839;SDS011;5979;50.800;4.904;2022-10-16T15:36:33;0.95;;;0.90;;
11839;SDS011;5979;50.800;4.904;2022-10-16T15:39:22;1.20;;;1.08;;
11839;SDS011;5979;50.800;4.904;2022-10-16T15:41:47;0.93;;;0.90;;
11839;SDS011;5979;50.800;4.904;2022-10-16T15:44:16;4.13;;;1.20;;
11839;SDS011;5979;50.800;4.904;2022-10-16T15:46:42;0.90;;;0.90;;
11839;SDS011;5979;50.800;4.904;2022-10-16T15:49:07;3.17;;;1.35;;
11839;SDS011;5979;50.800;4.904;2022-10-16T15:51:35;1.27;;;1.20;;
11839;SDS011;5979;50.800;4.904;2022-10-16T15:54:03;1.52;;;1.20;;
11839;SDS011;5979;50.800;4.904;2022-10-16T15:56:29;1.42;;;1.35;;
11839;SDS011;5979;50.800;4.904;2022-10-16T15:58:57;2.90;;;1.80;;
11839;SDS011;5979;50.800;4.904;2022-10-16T16:01:23;2.15;;;1.98;;
11839;SDS011;5979;50.800;4.904;2022-10-16T16:03:52;1.63;;;1.52;;
11839;SDS011;5979;50.800;4.904;2022-10-16T16:06:18;1.52;;;1.42;;
11839;SDS011;5979;50.800;4.904;2022-10-16T16:08:44;1.40;;;1.30;;
11839;SDS011;5979;50.800;4.904;2022-10-16T16:11:11;1.83;;;1.73;;
11839;SDS011;5979;50.800;4.904;2022-10-16T16:13:38;2.47;;;1.48;;
11839;SDS011;5979;50.800;4.904;2022-10-16T16:16:06;1.80;;;1.70;;
11839;SDS011;5979;50.800;4.904;2022-10-16T16:18:33;2.47;;;1.40;;
11839;SDS011;5979;50.800;4.904;2022-10-16T16:20:58;3.03;;;1.80;;
11839;SDS011;5979;50.800;4.904;2022-10-16T16:23:24;2.65;;;1.52;;
11839;SDS011;5979;50.800;4.904;2022-10-16T16:28:53;2.75;;;1.58;;
11839;SDS011;5979;50.800;4.904;2022-10-16T16:31:20;1.33;;;1.33;;
11839;SDS011;5979;50.800;4.904;2022-10-16T16:33:49;1.65;;;1.55;;
11839;SDS011;5979;50.800;4.904;2022-10-16T16:36:16;1.83;;;1.73;;
11839;SDS011;5979;50.800;4.904;2022-10-16T16:38:43;2.20;;;2.10;;
11839;SDS011;5979;50.800;4.904;2022-10-16T16:41:17;1.75;;;1.65;;
11839;SDS011;5979;50.800;4.904;2022-10-16T16:43:44;2.17;;;1.80;;
11839;SDS011;5979;50.800;4.904;2022-10-16T16:46:12;3.92;;;2.17;;
11839;SDS011;5979;50.800;4.904;2022-10-16T16:48:39;2.03;;;1.88;;
11839;SDS011;5979;50.800;4.904;2022-10-16T16:51:05;2.60;;;2.40;;
11839;SDS011;5979;50.800;4.904;2022-10-16T16:53:34;2.38;;;2.20;;
11839;SDS011;5979;50.800;4.904;2022-10-16T16:56:01;1.90;;;1.80;;
11839;SDS011;5979;50.800;4.904;2022-10-16T16:58:28;3.65;;;2.33;;
11839;SDS011;5979;50.800;4.904;2022-10-16T17:00:53;2.47;;;2.20;;
11839;SDS011;5979;50.800;4.904;2022-10-16T17:03:19;3.38;;;2.60;;
11839;SDS011;5979;50.800;4.904;2022-10-16T17:05:54;2.75;;;2.65;;
11839;SDS011;5979;50.800;4.904;2022-10-16T17:08:24;2.42;;;2.33;;
11839;SDS011;5979;50.800;4.904;2022-10-16T17:10:49;4.20;;;2.67;;
11839;SDS011;5979;50.800;4.904;2022-10-16T17:13:18;3.95;;;2.30;;
11839;SDS011;5979;50.800;4.904;2022-10-16T17:15:47;3.45;;;2.88;;
11839;SDS011;5979;50.800;4.904;2022-10-16T17:18:14;3.53;;;2.92;;
11839;SDS011;5979;50.800;4.904;2022-10-16T17:20:40;4.30;;;3.50;;
11839;SDS011;5979;50.800;4.904;2022-10-16T17:23:06;2.80;;;2.58;;
11839;SDS011;5979;50.800;4.904;2022-10-16T17:25:36;2.75;;;2.55;;
11839;SDS011;5979;50.800;4.904;2022-10-16T17:28:06;2.63;;;2.42;;
11839;SDS011;5979;50.800;4.904;2022-10-16T17:30:33;3.55;;;2.85;;
11839;SDS011;5979;50.800;4.904;2022-10-16T17:32:59;3.60;;;3.30;;
11839;SDS011;5979;50.800;4.904;2022-10-16T17:35:26;3.47;;;2.75;;
11839;SDS011;5979;50.800;4.904;2022-10-16T17:37:52;3.80;;;3.50;;
11839;SDS011;5979;50.800;4.904;2022-10-16T17:40:18;3.33;;;3.03;;
11839;SDS011;5979;50.800;4.904;2022-10-16T17:42:45;2.88;;;2.63;;
11839;SDS011;5979;50.800;4.904;2022-10-16T17:45:12;3.25;;;2.95;;
11839;SDS011;5979;50.800;4.904;2022-10-16T17:47:38;4.70;;;4.03;;
11839;SDS011;5979;50.800;4.904;2022-10-16T17:50:06;4.75;;;3.80;;
11839;SDS011;5979;50.800;4.904;2022-10-16T17:52:32;3.20;;;2.90;;
11839;SDS011;5979;50.800;4.904;2022-10-16T17:54:58;3.10;;;2.92;;
11839;SDS011;5979;50.800;4.904;2022-10-16T17:57:24;3.40;;;3.10;;
11839;SDS011;5979;50.800;4.904;2022-10-16T17:59:49;3.90;;;3.20;;
11839;SDS011;5979;50.800;4.904;2022-10-16T18:02:15;2.85;;;2.65;;
11839;SDS011;5979;50.800;4.904;2022-10-16T18:04:42;3.47;;;2.97;;
11839;SDS011;5979;50.800;4.904;2022-10-16T18:07:08;3.28;;;3.13;;
11839;SDS011;5979;50.800;4.904;2022-10-16T18:09:34;3.72;;;3.53;;
11839;SDS011;5979;50.800;4.904;2022-10-16T18:12:00;3.85;;;3.42;;
11839;SDS011;5979;50.800;4.904;2022-10-16T18:14:26;4.13;;;3.70;;
11839;SDS011;5979;50.800;4.904;2022-10-16T18:16:54;4.20;;;3.88;;
11839;SDS011;5979;50.800;4.904;2022-10-16T18:19:20;5.20;;;4.63;;
11839;SDS011;5979;50.800;4.904;2022-10-16T18:21:47;5.65;;;5.15;;
11839;SDS011;5979;50.800;4.904;2022-10-16T18:24:16;5.50;;;5.00;;
11839;SDS011;5979;50.800;4.904;2022-10-16T18:26:43;6.28;;;5.78;;
11839;SDS011;5979;50.800;4.904;2022-10-16T18:29:10;6.75;;;5.80;;
11839;SDS011;5979;50.800;4.904;2022-10-16T18:31:37;7.38;;;6.20;;
11839;SDS011;5979;50.800;4.904;2022-10-16T18:34:03;7.43;;;6.80;;
11839;SDS011;5979;50.800;4.904;2022-10-16T18:36:30;8.20;;;7.05;;
11839;SDS011;5979;50.800;4.904;2022-10-16T18:38:59;7.28;;;6.32;;
11839;SDS011;5979;50.800;4.904;2022-10-16T18:41:27;5.35;;;4.90;;
11839;SDS011;5979;50.800;4.904;2022-10-16T18:43:54;5.03;;;4.40;;
11839;SDS011;5979;50.800;4.904;2022-10-16T18:46:21;5.00;;;4.18;;
11839;SDS011;5979;50.800;4.904;2022-10-16T18:48:48;5.13;;;4.60;;
11839;SDS011;5979;50.800;4.904;2022-10-16T18:53:55;6.68;;;5.88;;
11839;SDS011;5979;50.800;4.904;2022-10-16T18:56:23;6.63;;;5.45;;
11839;SDS011;5979;50.800;4.904;2022-10-16T18:58:51;5.32;;;4.82;;
11839;SDS011;5979;50.800;4.904;2022-10-16T19:01:23;5.63;;;5.22;;
11839;SDS011;5979;50.800;4.904;2022-10-16T19:03:57;5.30;;;4.80;;
11839;SDS011;5979;50.800;4.904;2022-10-16T19:06:25;5.55;;;5.00;;
11839;SDS011;5979;50.800;4.904;2022-10-16T19:08:52;5.07;;;4.78;;
11839;SDS011;5979;50.800;4.904;2022-10-16T19:11:20;5.30;;;4.72;;
11839;SDS011;5979;50.800;4.904;2022-10-16T19:13:48;5.38;;;4.43;;
11839;SDS011;5979;50.800;4.904;2022-10-16T19:16:16;4.50;;;4.10;;
11839;SDS011;5979;50.800;4.904;2022-10-16T19:18:50;5.85;;;4.13;;
11839;SDS011;5979;50.800;4.904;2022-10-16T19:21:18;4.40;;;4.10;;
11839;SDS011;5979;50.800;4.904;2022-10-16T19:23:44;4.32;;;4.03;;
11839;SDS011;5979;50.800;4.904;2022-10-16T19:26:11;5.60;;;4.40;;
11839;SDS011;5979;50.800;4.904;2022-10-16T19:28:42;4.20;;;3.90;;
11839;SDS011;5979;50.800;4.904;2022-10-16T19:31:09;4.43;;;4.10;;
11839;SDS011;5979;50.800;4.904;2022-10-16T19:33:37;4.47;;;4.07;;
11839;SDS011;5979;50.800;4.904;2022-10-16T19:36:11;4.95;;;4.40;;
11839;SDS011;5979;50.800;4.904;2022-10-16T19:41:29;3.70;;;3.50;;
11839;SDS011;5979;50.800;4.904;2022-10-16T19:43:59;4.40;;;4.10;;
11839;SDS011;5979;50.800;4.904;2022-10-16T19:46:29;4.35;;;3.95;;
11839;SDS011;5979;50.800;4.904;2022-10-16T19:48:56;4.53;;;4.15;;
11839;SDS011;5979;50.800;4.904;2022-10-16T19:51:24;4.10;;;3.90;;
11839;SDS011;5979;50.800;4.904;2022-10-16T19:53:55;4.28;;;3.97;;
11839;SDS011;5979;50.800;4.904;2022-10-16T19:56:23;4.63;;;4.22;;
11839;SDS011;5979;50.800;4.904;2022-10-16T19:58:50;4.43;;;4.03;;
11839;SDS011;5979;50.800;4.904;2022-10-16T20:01:18;4.32;;;3.95;;
11839;SDS011;5979;50.800;4.904;2022-10-16T20:03:45;4.85;;;4.45;;
11839;SDS011;5979;50.800;4.904;2022-10-16T20:06:12;4.78;;;4.38;;
11839;SDS011;5979;50.800;4.904;2022-10-16T20:08:39;4.97;;;4.68;;
11839;SDS011;5979;50.800;4.904;2022-10-16T20:11:10;6.05;;;5.47;;
11839;SDS011;5979;50.800;4.904;2022-10-16T20:13:38;5.53;;;5.13;;
11839;SDS011;5979;50.800;4.904;2022-10-16T20:16:04;5.30;;;4.90;;
11839;SDS011;5979;50.800;4.904;2022-10-16T20:18:31;5.10;;;4.80;;
11839;SDS011;5979;50.800;4.904;2022-10-16T20:20:57;5.45;;;4.95;;
11839;SDS011;5979;50.800;4.904;2022-10-16T20:23:23;6.45;;;5.85;;
11839;SDS011;5979;50.800;4.904;2022-10-16T20:25:49;6.30;;;5.68;;
11839;SDS011;5979;50.800;4.904;2022-10-16T20:28:17;6.82;;;6.22;;
11839;SDS011;5979;50.800;4.904;2022-10-16T20:30:46;6.03;;;5.53;;
11839;SDS011;5979;50.800;4.904;2022-10-16T20:33:13;5.75;;;5.18;;
11839;SDS011;5979;50.800;4.904;2022-10-16T20:35:40;5.40;;;5.10;;
11839;SDS011;5979;50.800;4.904;2022-10-16T20:38:11;5.82;;;5.32;;
11839;SDS011;5979;50.800;4.904;2022-10-16T20:40:39;5.85;;;5.45;;
11839;SDS011;5979;50.800;4.904;2022-10-16T20:43:06;6.13;;;5.63;;
11839;SDS011;5979;50.800;4.904;2022-10-16T20:45:34;6.53;;;6.00;;
11839;SDS011;5979;50.800;4.904;2022-10-16T20:47:59;6.32;;;5.82;;
11839;SDS011;5979;50.800;4.904;2022-10-16T20:50:28;4.95;;;4.55;;
11839;SDS011;5979;50.800;4.904;2022-10-16T20:52:54;5.18;;;4.78;;
11839;SDS011;5979;50.800;4.904;2022-10-16T20:55:20;5.32;;;4.78;;
11839;SDS011;5979;50.800;4.904;2022-10-16T20:57:46;6.05;;;5.53;;
11839;SDS011;5979;50.800;4.904;2022-10-16T21:00:12;5.72;;;5.25;;
11839;SDS011;5979;50.800;4.904;2022-10-16T21:02:38;6.25;;;5.75;;
11839;SDS011;5979;50.800;4.904;2022-10-16T21:05:04;5.63;;;5.18;;
11839;SDS011;5979;50.800;4.904;2022-10-16T21:07:30;6.60;;;6.03;;
11839;SDS011;5979;50.800;4.904;2022-10-16T21:09:56;7.20;;;5.53;;
11839;SDS011;5979;50.800;4.904;2022-10-16T21:12:23;6.57;;;6.00;;
11839;SDS011;5979;50.800;4.904;2022-10-16T21:14:49;6.40;;;5.80;;
11839;SDS011;5979;50.800;4.904;2022-10-16T21:17:15;6.63;;;6.03;;
11839;SDS011;5979;50.800;4.904;2022-10-16T21:19:42;6.68;;;5.95;;
11839;SDS011;5979;50.800;4.904;2022-10-16T21:22:07;8.90;;;6.90;;
11839;SDS011;5979;50.800;4.904;2022-10-16T21:24:33;9.50;;;7.32;;
11839;SDS011;5979;50.800;4.904;2022-10-16T21:27:00;11.15;;;7.03;;
11839;SDS011;5979;50.800;4.904;2022-10-16T21:29:26;7.25;;;6.63;;
11839;SDS011;5979;50.800;4.904;2022-10-16T21:31:51;7.38;;;6.03;;
11839;SDS011;5979;50.800;4.904;2022-10-16T21:34:17;7.25;;;6.57;;
11839;SDS011;5979;50.800;4.904;2022-10-16T21:36:43;6.50;;;6.10;;
11839;SDS011;5979;50.800;4.904;2022-10-16T21:39:13;7.28;;;6.68;;
11839;SDS011;5979;50.800;4.904;2022-10-16T21:41:40;7.07;;;6.45;;
11839;SDS011;5979;50.800;4.904;2022-10-16T21:44:07;7.30;;;6.60;;
11839;SDS011;5979;50.800;4.904;2022-10-16T21:46:35;8.07;;;6.85;;
11839;SDS011;5979;50.800;4.904;2022-10-16T21:49:02;6.70;;;6.15;;
11839;SDS011;5979;50.800;4.904;2022-10-16T21:51:33;7.82;;;6.95;;
11839;SDS011;5979;50.800;4.904;2022-10-16T21:54:01;6.68;;;6.18;;
11839;SDS011;5979;50.800;4.904;2022-10-16T21:56:28;7.40;;;6.70;;
11839;SDS011;5979;50.800;4.904;2022-10-16T21:58:54;7.28;;;6.57;;
11839;SDS011;5979;50.800;4.904;2022-10-16T22:01:22;8.05;;;7.18;;
11839;SDS011;5979;50.800;4.904;2022-10-16T22:03:48;7.30;;;6.63;;
11839;SDS011;5979;50.800;4.904;2022-10-16T22:06:15;7.72;;;6.35;;
11839;SDS011;5979;50.800;4.904;2022-10-16T22:08:42;7.13;;;6.60;;
11839;SDS011;5979;50.800;4.904;2022-10-16T22:11:17;6.97;;;6.38;;
11839;SDS011;5979;50.800;4.904;2022-10-16T22:13:47;6.60;;;6.10;;
11839;SDS011;5979;50.800;4.904;2022-10-16T22:16:14;6.47;;;5.97;;
11839;SDS011;5979;50.800;4.904;2022-10-16T22:18:43;6.95;;;6.40;;
11839;SDS011;5979;50.800;4.904;2022-10-16T22:21:09;7.18;;;6.15;;
11839;SDS011;5979;50.800;4.904;2022-10-16T22:23:35;7.63;;;6.93;;
11839;SDS011;5979;50.800;4.904;2022-10-16T22:26:03;7.03;;;6.28;;
11839;SDS011;5979;50.800;4.904;2022-10-16T22:28:30;7.65;;;7.05;;
11839;SDS011;5979;50.800;4.904;2022-10-16T22:30:56;7.70;;;7.00;;
11839;SDS011;5979;50.800;4.904;2022-10-16T22:33:25;8.32;;;7.53;;
11839;SDS011;5979;50.800;4.904;2022-10-16T22:35:51;9.02;;;7.18;;
11839;SDS011;5979;50.800;4.904;2022-10-16T22:38:16;7.50;;;6.90;;
11839;SDS011;5979;50.800;4.904;2022-10-16T22:40:42;7.43;;;6.93;;
11839;SDS011;5979;50.800;4.904;2022-10-16T22:43:08;7.35;;;6.50;;
11839;SDS011;5979;50.800;4.904;2022-10-16T22:45:34;6.80;;;6.35;;
11839;SDS011;5979;50.800;4.904;2022-10-16T22:48:00;7.20;;;6.57;;
11839;SDS011;5979;50.800;4.904;2022-10-16T22:50:27;7.78;;;6.63;;
11839;SDS011;5979;50.800;4.904;2022-10-16T22:52:53;6.82;;;6.32;;